Time;durP1;ratioP1;P1;durP2;ratioP2;P2;SDS_P1;SDS_P2;PMS_P1;PMS_P2;Temp;Humidity;BMP_temperature;BMP_pressure;BME280_temperature;BME280_humidity;BME280_pressure;Samples;Min_cycle;Max_cycle;Signal;HPM_P1;HPM_P2
2023/01/12 00:01:26;;;;;;;4.75;3.58;;;;;;;9.04;71.47;100099.75;5034392;28;20612;-84
2023/01/12 00:03:52;;;;;;;4.53;2.28;;;;;;;9.05;71.19;100093.59;5030703;28;20171;-84
2023/01/12 00:06:18;;;;;;;6.90;2.13;;;;;;;9.03;71.24;100090.22;5030868;28;20178;-85
2023/01/12 00:08:47;;;;;;;8.15;2.75;;;;;;;8.96;71.50;100088.81;5030547;28;20503;-84
2023/01/12 00:11:13;;;;;;;5.50;1.92;;;;;;;8.94;71.40;100085.44;5030154;28;20207;-84
2023/01/12 00:13:39;;;;;;;9.85;2.15;;;;;;;8.93;71.47;100086.34;5028441;28;20183;-84
2023/01/12 00:18:49;;;;;;;14.80;2.67;;;;;;;8.91;71.50;100089.94;5030094;28;20229;-84
2023/01/12 00:21:15;;;;;;;8.33;3.10;;;;;;;8.88;71.23;100084.88;5030264;28;20206;-84
2023/01/12 00:23:41;;;;;;;3.22;1.92;;;;;;;8.88;71.39;100072.63;5029565;28;20185;-84
2023/01/12 00:26:07;;;;;;;5.10;1.87;;;;;;;8.85;71.28;100071.00;5032929;28;20166;-84
2023/01/12 00:28:37;;;;;;;12.70;4.57;;;;;;;8.84;71.57;100064.06;5033113;28;20589;-84
2023/01/12 00:31:08;;;;;;;5.00;2.40;;;;;;;8.84;71.33;100065.84;5031277;28;20283;-83
2023/01/12 00:33:34;;;;;;;6.32;1.50;;;;;;;8.84;71.28;100053.59;4998876;28;20195;-84
2023/01/12 00:36:04;;;;;;;10.70;3.08;;;;;;;8.83;71.21;100058.88;5030127;28;20268;-85
2023/01/12 00:38:30;;;;;;;10.07;2.70;;;;;;;8.83;71.14;100058.88;5031574;28;20310;-84
2023/01/12 00:40:55;;;;;;;9.63;2.20;;;;;;;8.81;71.07;100050.28;5042136;28;20202;-84
2023/01/12 00:46:05;;;;;;;1.88;1.40;;;;;;;8.80;70.86;100072.13;5043237;28;20170;-84
2023/01/12 00:48:30;;;;;;;2.70;1.43;;;;;;;8.80;70.93;100077.38;5049530;28;20260;-82
2023/01/12 00:50:56;;;;;;;6.03;1.60;;;;;;;8.81;70.93;100079.94;5050041;28;20210;-81
2023/01/12 00:53:21;;;;;;;5.30;2.30;;;;;;;8.84;70.63;100084.19;5033339;28;20170;-81
2023/01/12 00:55:46;;;;;;;5.63;2.20;;;;;;;8.86;70.59;100069.25;5050898;28;20173;-81
2023/01/12 00:58:12;;;;;;;3.70;1.70;;;;;;;8.91;70.25;100072.50;5049900;28;20228;-84
2023/01/12 01:00:37;;;;;;;8.30;2.40;;;;;;;8.90;70.20;100055.06;5048772;28;20638;-84
2023/01/12 01:03:02;;;;;;;5.93;2.03;;;;;;;8.94;70.10;100056.63;5032857;28;20177;-84
2023/01/12 01:05:29;;;;;;;4.90;1.97;;;;;;;8.94;70.04;100046.13;5050072;28;20182;-83
2023/01/12 01:07:54;;;;;;;10.18;2.25;;;;;;;8.93;70.13;100061.91;5050369;28;20190;-83
2023/01/12 01:10:20;;;;;;;6.20;1.57;;;;;;;8.92;69.98;100057.59;5026885;28;20198;-83
2023/01/12 01:12:45;;;;;;;1.93;1.70;;;;;;;8.88;70.25;100053.44;5012101;28;20187;-84
2023/01/12 01:15:11;;;;;;;19.67;2.40;;;;;;;8.87;69.79;100057.81;5028722;28;20186;-84
2023/01/12 01:17:36;;;;;;;7.30;1.60;;;;;;;8.82;69.85;100044.09;5027078;28;20194;-83
2023/01/12 01:20:03;;;;;;;5.23;1.77;;;;;;;8.82;69.80;100050.19;5031809;28;20209;-83
2023/01/12 01:22:29;;;;;;;14.07;3.00;;;;;;;8.79;69.83;100055.59;5051928;28;20201;-83
2023/01/12 01:24:54;;;;;;;8.60;2.30;;;;;;;8.79;69.65;100063.44;5051439;28;20261;-83
2023/01/12 01:27:20;;;;;;;8.30;1.53;;;;;;;8.75;69.75;100059.28;5051835;28;20173;-83
2023/01/12 01:29:45;;;;;;;4.10;1.47;;;;;;;8.77;69.57;100053.97;5035549;28;20576;-83
2023/01/12 01:32:10;;;;;;;6.50;1.80;;;;;;;8.76;69.58;100062.75;5053151;28;20206;-83
2023/01/12 01:34:36;;;;;;;5.13;2.17;;;;;;;8.76;69.41;100057.50;5052045;28;20197;-84
2023/01/12 01:37:01;;;;;;;5.20;2.17;;;;;;;8.77;69.38;100051.34;5052804;28;20182;-83
2023/01/12 01:39:27;;;;;;;6.57;1.83;;;;;;;8.79;69.41;100062.59;5033749;28;20201;-84
2023/01/12 01:41:52;;;;;;;3.90;1.70;;;;;;;8.76;69.22;100070.59;5032878;28;20186;-83
2023/01/12 01:44:29;;;;;;;14.00;3.57;;;;;;;8.78;69.08;100074.84;5032781;28;20185;-83
2023/01/12 01:47:02;;;;;;;4.97;1.35;;;;;;;8.78;69.09;100082.72;5051273;28;20182;-83
2023/01/12 01:49:40;;;;;;;4.10;2.40;;;;;;;8.79;68.89;100086.16;5050424;28;20198;-83
2023/01/12 01:52:10;;;;;;;7.10;2.00;;;;;;;8.80;68.78;100086.09;5033076;28;20329;-83
2023/01/12 01:54:46;;;;;;;5.20;1.98;;;;;;;8.79;68.78;100094.03;5024679;28;20303;-84
2023/01/12 01:57:13;;;;;;;3.58;1.40;;;;;;;8.81;68.68;100090.41;5032344;28;20174;-83
2023/01/12 01:59:45;;;;;;;5.22;2.22;;;;;;;8.83;68.78;100098.19;5011531;28;20183;-83
2023/01/12 02:02:11;;;;;;;9.73;2.35;;;;;;;8.86;68.53;100080.56;5032519;28;20253;-83
2023/01/12 02:04:37;;;;;;;3.30;1.33;;;;;;;8.89;68.31;100082.19;5031470;28;20193;-84
2023/01/12 02:07:04;;;;;;;4.83;1.57;;;;;;;8.86;68.15;100072.69;5031441;28;20635;-84
2023/01/12 02:09:30;;;;;;;5.85;1.60;;;;;;;8.89;68.17;100076.09;5032254;28;20272;-84
2023/01/12 02:17:54;;;;;;;8.63;1.95;;;;;;;8.96;67.78;100052.13;5051626;28;20198;-83
2023/01/12 02:20:35;;;;;;;11.60;2.50;;;;;;;8.92;67.62;100045.34;5051236;28;20190;-84
2023/01/12 02:23:22;;;;;;;7.53;3.03;;;;;;;8.94;67.65;100019.94;5051894;28;20534;-84
2023/01/12 02:26:25;;;;;;;4.00;1.23;;;;;;;8.96;67.57;100014.59;5051529;28;20170;-84
2023/01/12 02:28:56;;;;;;;10.93;2.80;;;;;;;8.98;67.68;100018.84;5050318;28;20682;-84
2023/01/12 02:31:22;;;;;;;10.02;1.92;;;;;;;8.98;67.41;100016.22;5049658;28;20228;-84
2023/01/12 02:34:24;;;;;;;4.63;1.70;;;;;;;9.02;67.44;100022.16;5051173;28;20432;-83
2023/01/12 02:37:03;;;;;;;8.85;2.08;;;;;;;9.02;67.27;100022.16;5051142;28;20339;-84
2023/01/12 02:39:40;;;;;;;13.95;2.58;;;;;;;9.02;67.43;100020.41;5050535;28;20189;-84
2023/01/12 02:45:12;;;;;;;4.55;1.73;;;;;;;9.05;67.23;99998.44;5043088;28;21061;-84
2023/01/12 02:47:56;;;;;;;8.95;2.10;;;;;;;9.05;67.11;100003.66;5067699;28;20228;-84
2023/01/12 02:50:39;;;;;;;9.55;1.20;;;;;;;9.11;67.05;100007.75;5034228;28;20625;-84
2023/01/12 02:53:16;;;;;;;9.68;2.70;;;;;;;9.09;67.07;100026.16;5013178;28;20265;-84
2023/01/12 02:55:44;;;;;;;4.30;1.67;;;;;;;9.08;67.07;100030.56;5028327;28;20174;-83
2023/01/12 02:58:12;;;;;;;6.28;1.20;;;;;;;9.13;66.81;100035.56;5033410;28;20230;-83
2023/01/12 03:00:41;;;;;;;7.90;1.70;;;;;;;9.17;66.74;100038.88;5036410;28;20181;-83
2023/01/12 03:03:06;;;;;;;7.22;3.58;;;;;;;9.16;66.72;100032.78;5049926;28;20182;-84
2023/01/12 03:05:32;;;;;;;6.80;2.50;;;;;;;9.22;66.60;100021.16;5048947;28;20584;-83
2023/01/12 03:08:04;;;;;;;6.33;1.87;;;;;;;9.23;66.75;100015.81;5050445;28;20203;-83
2023/01/12 03:11:04;;;;;;;3.20;1.77;;;;;;;9.24;66.60;99998.34;5031225;28;20364;-83
2023/01/12 03:13:33;;;;;;;7.65;2.45;;;;;;;9.20;66.83;100007.25;5049519;28;20182;-84
2023/01/12 03:16:01;;;;;;;6.95;1.88;;;;;;;9.20;66.54;100015.13;5032735;28;20195;-83
2023/01/12 03:18:31;;;;;;;9.43;1.95;;;;;;;9.20;66.33;100018.59;5049349;28;20254;-84
2023/01/12 03:21:04;;;;;;;5.45;1.55;;;;;;;9.24;66.40;100019.28;5043067;28;20184;-83
2023/01/12 03:23:38;;;;;;;6.30;1.48;;;;;;;9.20;66.19;100025.59;5029655;28;20183;-84
2023/01/12 03:26:06;;;;;;;4.05;2.28;;;;;;;9.26;66.17;100012.19;5028375;28;20180;-84
2023/01/12 03:28:36;;;;;;;4.55;1.38;;;;;;;9.23;66.32;100010.56;5045956;28;20561;-84
2023/01/12 03:31:08;;;;;;;2.83;1.33;;;;;;;9.23;66.13;100009.72;5039798;28;20207;-84
2023/01/12 03:33:34;;;;;;;6.20;1.60;;;;;;;9.24;66.33;100011.44;5051036;28;20178;-84
2023/01/12 03:36:08;;;;;;;4.60;1.40;;;;;;;9.26;66.12;100005.19;5049315;28;20241;-84
2023/01/12 03:39:20;;;;;;;3.90;1.80;;;;;;;9.26;66.15;100005.19;5048987;28;20540;-84
2023/01/12 03:42:08;;;;;;;10.48;1.80;;;;;;;9.25;66.12;100000.00;5022471;28;20202;-84
2023/01/12 03:45:03;;;;;;;4.15;1.83;;;;;;;9.24;66.43;99985.22;5042951;28;20175;-84
2023/01/12 03:47:31;;;;;;;8.18;2.90;;;;;;;9.23;66.28;99994.00;5028646;28;20965;-83
2023/01/12 03:50:01;;;;;;;6.75;1.52;;;;;;;9.24;66.13;100001.78;5027894;28;20567;-83
2023/01/12 03:52:29;;;;;;;6.25;1.75;;;;;;;9.27;66.15;100006.88;5029558;28;20768;-84
2023/01/12 03:54:58;;;;;;;7.20;1.52;;;;;;;9.26;66.31;100005.19;5029554;28;20547;-83
2023/01/12 03:57:25;;;;;;;2.97;1.42;;;;;;;9.28;66.42;100010.34;5029839;28;20264;-84
2023/01/12 03:59:52;;;;;;;6.50;1.70;;;;;;;9.28;66.02;100007.72;5044361;28;20183;-84
2023/01/12 04:02:17;;;;;;;3.47;1.20;;;;;;;9.32;65.99;100004.03;5033233;28;20214;-84
2023/01/12 04:04:43;;;;;;;5.07;1.73;;;;;;;9.33;65.90;100003.09;5069156;28;20205;-83
2023/01/12 04:07:08;;;;;;;4.80;2.27;;;;;;;9.35;65.90;99996.00;5069151;28;20643;-83
2023/01/12 04:09:33;;;;;;;2.87;1.60;;;;;;;9.39;65.49;100002.75;5051006;28;20391;-84
2023/01/12 04:12:11;;;;;;;6.23;1.60;;;;;;;9.39;65.35;100008.00;5051129;28;20299;-83
2023/01/12 04:14:41;;;;;;;3.92;1.55;;;;;;;9.42;65.23;99993.88;5047690;28;20216;-83
2023/01/12 04:17:09;;;;;;;7.90;2.38;;;;;;;9.44;65.13;100000.75;5049283;28;20184;-84
2023/01/12 04:19:34;;;;;;;3.15;1.77;;;;;;;9.43;65.22;100004.31;5047448;28;20190;-83
2023/01/12 04:24:43;;;;;;;6.78;2.40;;;;;;;9.46;65.17;99998.06;5048832;28;20218;-84
2023/01/12 04:27:09;;;;;;;4.60;1.60;;;;;;;9.45;65.33;99999.84;5049927;28;20206;-84
2023/01/12 04:29:34;;;;;;;4.60;1.97;;;;;;;9.45;65.23;100007.69;5049184;28;20183;-84
2023/01/12 04:32:00;;;;;;;4.63;1.60;;;;;;;9.45;65.23;99999.84;5047488;28;20214;-84
2023/01/12 04:34:25;;;;;;;3.40;1.97;;;;;;;9.44;65.10;100003.38;5049200;28;20179;-84
2023/01/12 04:36:50;;;;;;;3.20;2.40;;;;;;;9.46;65.25;100009.38;5048747;28;20179;-84
2023/01/12 04:39:16;;;;;;;12.03;2.70;;;;;;;9.46;65.36;100006.75;5048560;28;20211;-84
2023/01/12 04:41:41;;;;;;;3.23;1.43;;;;;;;9.48;64.99;99994.41;5048460;28;20388;-84
2023/01/12 04:44:06;;;;;;;6.00;2.50;;;;;;;9.47;65.32;99990.09;5049384;28;20548;-84
2023/01/12 04:46:32;;;;;;;7.20;2.23;;;;;;;9.48;65.16;99980.47;5016236;28;20178;-83
2023/01/12 04:48:58;;;;;;;5.40;1.80;;;;;;;9.47;65.15;99984.00;5029064;28;20688;-84
2023/01/12 04:51:23;;;;;;;7.40;1.40;;;;;;;9.47;65.18;99995.31;5038917;28;20217;-83
2023/01/12 04:53:50;;;;;;;6.13;1.90;;;;;;;9.44;65.35;99994.66;5047938;28;20253;-84
2023/01/12 04:56:15;;;;;;;3.85;1.45;;;;;;;9.43;65.36;99995.59;5048769;28;20457;-84
2023/01/12 04:58:41;;;;;;;5.30;2.27;;;;;;;9.41;65.34;100008.78;5029071;28;20257;-84
2023/01/12 05:01:08;;;;;;;4.70;1.37;;;;;;;9.38;65.59;100001.06;5034613;28;20553;-83
2023/01/12 05:03:34;;;;;;;4.45;2.00;;;;;;;9.40;65.52;100006.25;5029205;28;20696;-83
2023/01/12 05:06:01;;;;;;;11.13;2.10;;;;;;;9.38;65.54;100002.84;5027329;28;20239;-84
2023/01/12 05:11:10;;;;;;;5.45;2.05;;;;;;;9.29;65.58;99999.78;5041181;28;20214;-84
2023/01/12 05:13:35;;;;;;;4.73;1.50;;;;;;;9.27;65.86;99992.94;5047163;28;20182;-84
2023/01/12 05:16:14;;;;;;;4.20;1.70;;;;;;;9.25;65.72;99997.38;5048163;28;20187;-84
2023/01/12 05:18:40;;;;;;;3.95;1.52;;;;;;;9.21;66.07;99998.50;5030991;28;20208;-84
2023/01/12 05:21:05;;;;;;;8.85;1.70;;;;;;;9.19;66.02;99989.84;5041411;28;20204;-83
2023/01/12 05:23:31;;;;;;;6.23;1.70;;;;;;;9.17;66.23;99978.59;5039464;28;20269;-84
2023/01/12 05:26:01;;;;;;;6.70;1.57;;;;;;;9.14;66.21;99973.50;5030215;28;20583;-84
2023/01/12 05:28:28;;;;;;;4.20;2.03;;;;;;;9.12;66.31;99960.47;5034010;28;20298;-84
2023/01/12 05:30:54;;;;;;;5.80;1.50;;;;;;;9.12;66.40;99965.72;5039587;28;20218;-84
2023/01/12 05:33:20;;;;;;;5.03;2.47;;;;;;;9.13;66.48;99963.94;5043129;28;20191;-84
2023/01/12 05:35:45;;;;;;;8.10;2.00;;;;;;;9.12;66.11;99964.88;5038936;28;20190;-83
2023/01/12 05:38:11;;;;;;;4.23;1.90;;;;;;;9.13;66.28;99958.69;5020273;28;20623;-84
2023/01/12 05:40:37;;;;;;;2.90;1.80;;;;;;;9.14;66.10;99956.00;5040971;28;20201;-85
2023/01/12 05:45:47;;;;;;;3.67;1.45;;;;;;;9.16;65.79;99955.94;5047169;28;20686;-85
2023/01/12 05:48:12;;;;;;;2.50;1.67;;;;;;;9.19;65.84;99955.78;5047696;28;20215;-85
2023/01/12 05:50:37;;;;;;;8.80;2.10;;;;;;;9.20;65.54;99945.19;5040711;28;20215;-85
2023/01/12 05:53:06;;;;;;;3.40;1.60;;;;;;;9.19;65.40;99951.38;5028418;28;20275;-85
2023/01/12 05:55:32;;;;;;;10.70;2.07;;;;;;;9.20;65.30;99945.19;5027372;28;21154;-84
2023/01/12 05:57:58;;;;;;;3.80;1.10;;;;;;;9.22;65.35;99932.03;5036443;28;20895;-85
2023/01/12 06:00:23;;;;;;;6.57;1.88;;;;;;;9.23;65.00;99923.22;5038259;28;20211;-84
2023/01/12 06:02:49;;;;;;;8.40;1.97;;;;;;;9.25;64.98;99939.72;5040205;28;20186;-84
2023/01/12 06:05:14;;;;;;;4.10;2.07;;;;;;;9.24;64.87;99945.91;5036936;28;20210;-84
2023/01/12 06:07:39;;;;;;;3.23;1.40;;;;;;;9.23;64.67;99946.81;5037038;28;20628;-85
2023/01/12 06:10:05;;;;;;;10.90;1.80;;;;;;;9.24;64.64;99952.00;5022961;28;20207;-84
2023/01/12 06:15:15;;;;;;;3.17;1.45;;;;;;;9.28;64.47;99960.53;5025530;28;20186;-85
2023/01/12 06:17:40;;;;;;;7.13;1.70;;;;;;;9.33;64.36;99962.91;5025941;28;20260;-84
2023/01/12 06:20:06;;;;;;;5.70;2.00;;;;;;;9.34;64.33;99962.81;5028448;28;20971;-85
2023/01/12 06:22:32;;;;;;;4.68;1.50;;;;;;;9.34;64.24;99956.72;5045935;28;20305;-85
2023/01/12 06:24:57;;;;;;;13.33;1.80;;;;;;;9.34;64.12;99959.34;5046691;28;20183;-85
2023/01/12 06:27:23;;;;;;;2.93;1.60;;;;;;;9.34;63.99;99947.09;5032774;28;20244;-84
2023/01/12 06:29:48;;;;;;;9.60;1.60;;;;;;;9.36;64.10;99952.25;5046494;28;20194;-85
2023/01/12 06:32:13;;;;;;;4.30;1.60;;;;;;;9.39;63.62;99939.81;5046170;28;20203;-84
2023/01/12 06:34:39;;;;;;;7.77;1.50;;;;;;;9.40;63.59;99933.69;5043262;28;20224;-85
2023/01/12 06:37:06;;;;;;;6.07;1.43;;;;;;;9.40;63.72;99935.47;5047799;28;20186;-85
2023/01/12 06:39:31;;;;;;;2.55;1.70;;;;;;;9.41;63.43;99937.13;5050819;28;20194;-85
2023/01/12 06:44:41;;;;;;;3.50;1.30;;;;;;;9.44;63.48;99916.84;5028004;28;20426;-84
2023/01/12 06:47:06;;;;;;;3.23;1.40;;;;;;;9.44;63.38;99913.38;5045256;28;20191;-84
2023/01/12 06:49:31;;;;;;;2.00;1.00;;;;;;;9.45;63.38;99922.91;5049110;28;20294;-84
2023/01/12 06:51:57;;;;;;;4.47;1.57;;;;;;;9.45;63.24;99934.28;5031906;28;20210;-84
2023/01/12 06:54:22;;;;;;;4.67;1.30;;;;;;;9.47;63.26;99927.16;5030198;28;20176;-85
2023/01/12 06:56:48;;;;;;;4.87;1.67;;;;;;;9.44;63.36;99913.38;5030484;28;20184;-84
2023/01/12 06:59:13;;;;;;;3.03;1.67;;;;;;;9.43;63.21;99917.78;5029352;28;20310;-85
2023/01/12 07:01:39;;;;;;;8.80;2.43;;;;;;;9.43;63.26;99927.41;5045731;28;20516;-85
2023/01/12 07:04:05;;;;;;;4.65;2.10;;;;;;;9.42;63.38;99921.31;5048576;28;20254;-84
2023/01/12 07:06:30;;;;;;;5.97;1.57;;;;;;;9.45;63.37;99920.31;5032601;28;20286;-84
2023/01/12 07:08:56;;;;;;;6.00;1.40;;;;;;;9.44;63.51;99921.25;5032268;28;20507;-84
2023/01/12 07:11:22;;;;;;;5.10;1.53;;;;;;;9.43;63.55;99925.63;5047537;28;20268;-84
2023/01/12 07:13:47;;;;;;;6.10;1.50;;;;;;;9.44;63.71;99921.25;5050213;28;20259;-85
2023/01/12 07:16:12;;;;;;;5.60;1.43;;;;;;;9.45;63.48;99915.94;5030026;28;20683;-84
2023/01/12 07:18:38;;;;;;;9.13;1.40;;;;;;;9.45;63.65;99912.44;5049751;28;20286;-84
2023/01/12 07:21:05;;;;;;;3.73;1.53;;;;;;;9.44;63.52;99916.00;5039210;28;20659;-84
2023/01/12 07:23:30;;;;;;;8.75;1.42;;;;;;;9.44;63.74;99913.38;5028607;28;20259;-84
2023/01/12 07:25:56;;;;;;;9.20;1.77;;;;;;;9.47;63.56;99934.19;5029768;28;20668;-86
2023/01/12 07:28:22;;;;;;;3.17;1.27;;;;;;;9.48;63.54;99933.28;5022383;28;20218;-85
2023/01/12 07:30:47;;;;;;;4.13;1.30;;;;;;;9.49;63.71;99930.53;5040734;28;20564;-87
2023/01/12 07:33:14;;;;;;;3.27;1.00;;;;;;;9.51;63.65;99926.06;5030590;28;20586;-86
2023/01/12 07:35:40;;;;;;;4.20;1.20;;;;;;;9.56;63.48;99935.44;5029571;28;20219;-87
2023/01/12 07:38:06;;;;;;;2.03;1.15;;;;;;;9.58;63.29;99930.97;5029031;28;20214;-86
2023/01/12 07:40:32;;;;;;;3.40;1.17;;;;;;;9.57;63.42;99940.63;5024549;28;20180;-86
2023/01/12 07:42:59;;;;;;;2.43;1.20;;;;;;;9.60;63.37;99931.75;5010634;28;20628;-87
2023/01/12 07:45:25;;;;;;;2.50;1.33;;;;;;;9.62;63.13;99938.59;5031274;28;20427;-85
2023/01/12 07:47:54;;;;;;;2.93;1.43;;;;;;;9.63;63.03;99931.56;5049220;28;20274;-84
2023/01/12 07:50:24;;;;;;;7.38;1.25;;;;;;;9.62;62.96;99929.91;5044369;28;20939;-85
2023/01/12 07:52:50;;;;;;;1.98;1.35;;;;;;;9.63;62.68;99928.97;5029294;28;20195;-85
2023/01/12 07:55:18;;;;;;;5.28;1.38;;;;;;;9.62;62.81;99929.91;5028356;28;20187;-84
2023/01/12 07:57:52;;;;;;;5.95;1.88;;;;;;;9.62;62.68;99922.03;5028238;28;20311;-84
2023/01/12 08:00:22;;;;;;;4.15;1.35;;;;;;;9.63;62.70;99915.84;5031849;28;20199;-84
2023/01/12 08:02:49;;;;;;;1.80;1.50;;;;;;;9.62;62.67;99914.16;5049213;28;20171;-84
2023/01/12 08:05:14;;;;;;;3.38;1.35;;;;;;;9.64;62.48;99918.41;5048804;28;20528;-85
2023/01/12 08:07:40;;;;;;;1.60;1.27;;;;;;;9.70;62.15;99917.22;5049655;28;20205;-84
2023/01/12 08:10:06;;;;;;;2.30;1.30;;;;;;;9.70;61.97;99923.28;5044777;28;20211;-85
2023/01/12 08:12:31;;;;;;;4.50;1.60;;;;;;;9.71;62.17;99934.63;5046438;28;20215;-84
2023/01/12 08:14:57;;;;;;;2.57;1.27;;;;;;;9.74;61.89;99926.59;5048696;28;20437;-84
2023/01/12 08:17:23;;;;;;;2.70;1.10;;;;;;;9.75;61.85;99933.53;5030872;28;20191;-85
2023/01/12 08:19:54;;;;;;;4.60;1.70;;;;;;;9.80;61.45;99941.97;5044898;28;20641;-85
2023/01/12 08:22:27;;;;;;;1.85;1.00;;;;;;;9.84;61.34;99938.28;5047857;28;20465;-84
2023/01/12 08:25:00;;;;;;;6.20;1.48;;;;;;;9.85;61.25;99945.19;5046934;28;20179;-84
2023/01/12 08:27:29;;;;;;;2.97;0.80;;;;;;;9.91;61.08;99937.00;5048638;28;20203;-85
2023/01/12 08:29:57;;;;;;;2.90;1.35;;;;;;;9.92;60.76;99938.69;5046938;28;20245;-85
2023/01/12 08:32:24;;;;;;;5.10;1.55;;;;;;;9.99;60.59;99936.59;5028051;28;20216;-84
2023/01/12 08:34:52;;;;;;;3.30;2.10;;;;;;;10.01;60.66;99942.56;5028420;28;20544;-83
2023/01/12 08:37:20;;;;;;;11.13;2.20;;;;;;;10.03;60.44;99924.97;5028543;28;20237;-84
2023/01/12 08:39:46;;;;;;;5.00;2.30;;;;;;;10.05;60.41;99933.63;5028625;28;20179;-84
2023/01/12 08:42:12;;;;;;;18.20;3.13;;;;;;;10.07;60.33;99929.13;5048426;28;20235;-85
2023/01/12 08:44:37;;;;;;;3.77;1.77;;;;;;;10.11;60.23;99928.00;5048908;28;20491;-84
2023/01/12 08:47:05;;;;;;;4.40;1.60;;;;;;;10.22;59.80;99930.03;5033991;28;20277;-84
2023/01/12 08:49:32;;;;;;;6.22;1.95;;;;;;;10.28;59.64;99929.69;5049631;28;20218;-84
2023/01/12 08:51:57;;;;;;;3.17;1.17;;;;;;;10.32;59.50;99936.47;5027995;28;20207;-85
2023/01/12 08:54:23;;;;;;;4.23;1.40;;;;;;;10.35;59.91;99932.84;5026349;28;20210;-85
2023/01/12 08:56:49;;;;;;;2.77;1.17;;;;;;;10.37;59.54;99928.34;5028435;28;20192;-84
2023/01/12 08:59:18;;;;;;;1.80;1.27;;;;;;;10.40;59.57;99921.13;5028490;28;20493;-83
2023/01/12 09:01:43;;;;;;;6.07;2.08;;;;;;;10.44;59.31;99921.78;5044076;28;20648;-84
2023/01/12 09:04:09;;;;;;;4.57;1.80;;;;;;;10.43;59.52;99935.03;5047789;28;20202;-84
2023/01/12 09:06:37;;;;;;;2.93;1.50;;;;;;;10.50;59.55;99938.97;5047769;28;20182;-84
2023/01/12 09:09:05;;;;;;;3.20;2.10;;;;;;;10.51;59.46;99932.78;5047863;28;20202;-84
2023/01/12 09:11:31;;;;;;;1.73;1.00;;;;;;;10.48;59.80;99930.34;5028688;28;20211;-84
2023/01/12 09:13:57;;;;;;;1.80;1.42;;;;;;;10.51;59.82;99914.41;5047878;28;20188;-84
2023/01/12 09:16:24;;;;;;;2.43;1.50;;;;;;;10.52;60.18;99923.97;5046507;28;20230;-83
2023/01/12 09:18:50;;;;;;;2.00;1.45;;;;;;;10.52;60.38;99919.56;5026161;28;20995;-84
2023/01/12 09:21:18;;;;;;;3.57;1.40;;;;;;;10.52;60.28;99921.34;5045829;28;20214;-84
2023/01/12 09:23:44;;;;;;;2.03;1.10;;;;;;;10.51;60.73;99924.91;5044985;28;20286;-84
2023/01/12 09:26:13;;;;;;;3.20;1.30;;;;;;;10.52;60.37;99913.47;5046482;28;20668;-84
2023/01/12 09:28:39;;;;;;;5.57;2.35;;;;;;;10.48;60.50;99904.94;5047646;28;20741;-84
2023/01/12 09:31:13;;;;;;;2.72;0.98;;;;;;;10.49;60.51;99911.03;5046808;28;20215;-85
2023/01/12 09:33:39;;;;;;;4.93;1.20;;;;;;;10.49;60.50;99932.88;5047930;28;20175;-84
2023/01/12 09:36:09;;;;;;;2.78;1.23;;;;;;;10.49;60.70;99947.78;5046761;28;20183;-84
2023/01/12 09:38:36;;;;;;;3.25;1.65;;;;;;;10.53;60.54;99965.03;5046635;28;20242;-84
2023/01/12 09:41:09;;;;;;;1.90;0.90;;;;;;;10.51;60.67;99970.41;5036335;28;20270;-84
2023/01/12 09:49:11;;;;;;;3.63;0.93;;;;;;;10.57;60.75;99982.34;5054879;28;20213;-84
2023/01/12 09:51:48;;;;;;;2.20;0.98;;;;;;;10.58;60.91;99978.75;5036011;28;20626;-84
2023/01/12 09:54:14;;;;;;;3.80;2.30;;;;;;;10.55;61.07;99974.53;5031782;28;20183;-85
2023/01/12 09:56:51;;;;;;;0.90;0.77;;;;;;;10.60;61.10;99976.91;5030444;28;20203;-84
2023/01/12 09:59:37;;;;;;;2.83;1.13;;;;;;;10.60;61.11;99966.41;5040348;28;20235;-84
2023/01/12 10:02:08;;;;;;;1.15;0.93;;;;;;;10.60;61.30;99971.66;5062392;28;20483;-83
2023/01/12 10:04:35;;;;;;;1.48;1.02;;;;;;;10.55;61.39;99950.06;5062740;28;20176;-83
2023/01/12 10:07:01;;;;;;;2.72;1.20;;;;;;;10.56;61.47;99952.59;5061685;28;20795;-83
2023/01/12 10:09:26;;;;;;;2.03;1.00;;;;;;;10.57;61.52;99951.66;5062375;28;20293;-83
2023/01/12 10:12:04;;;;;;;2.30;1.30;;;;;;;10.61;61.68;99942.69;5044362;28;20243;-84
2023/01/12 10:14:33;;;;;;;3.08;1.83;;;;;;;10.62;61.42;99946.16;5043729;28;20281;-83
2023/01/12 10:17:24;;;;;;;2.53;1.23;;;;;;;10.63;61.46;99945.19;5048687;28;20175;-83
2023/01/12 10:20:08;;;;;;;2.47;0.93;;;;;;;10.70;61.16;99949.16;5048536;28;20237;-84
2023/01/12 10:22:40;;;;;;;3.90;1.55;;;;;;;10.72;61.12;99941.19;5048112;28;20183;-83
2023/01/12 10:25:33;;;;;;;5.85;1.80;;;;;;;10.79;60.91;99943.34;5049390;28;20231;-83
2023/01/12 10:28:04;;;;;;;3.70;1.42;;;;;;;10.87;60.80;99934.19;5040029;28;20200;-83
2023/01/12 10:30:35;;;;;;;1.35;0.90;;;;;;;10.89;60.75;99920.03;5050435;28;20183;-83
2023/01/12 10:33:20;;;;;;;4.53;1.52;;;;;;;10.92;60.89;99937.38;5065886;28;20670;-84
2023/01/12 10:35:50;;;;;;;4.00;1.15;;;;;;;10.94;61.00;99928.47;5044991;28;20191;-84
2023/01/12 10:38:32;;;;;;;2.30;1.05;;;;;;;10.98;61.17;99931.75;5066252;28;20211;-83
2023/01/12 10:41:19;;;;;;;3.13;1.17;;;;;;;11.01;61.10;99928.94;5058505;28;20243;-83
2023/01/12 10:44:04;;;;;;;5.68;1.45;;;;;;;11.02;61.11;99918.34;5046921;28;20216;-84
2023/01/12 10:46:31;;;;;;;4.45;1.55;;;;;;;11.04;61.09;99913.84;5052356;28;20186;-84
2023/01/12 10:49:16;;;;;;;3.88;1.30;;;;;;;11.01;61.23;99900.88;5066931;28;20207;-84
2023/01/12 10:51:49;;;;;;;2.80;1.52;;;;;;;11.02;61.19;99901.72;5058679;28;20209;-83
2023/01/12 10:54:18;;;;;;;3.45;1.05;;;;;;;11.00;61.35;99903.59;5068334;28;20196;-83
2023/01/12 10:57:02;;;;;;;1.42;1.27;;;;;;;10.99;61.46;99900.13;5060025;28;20216;-84
2023/01/12 10:59:31;;;;;;;3.33;1.25;;;;;;;10.93;61.38;99892.59;5058879;28;20248;-85
2023/01/12 11:02:07;;;;;;;4.68;1.45;;;;;;;10.94;61.52;99877.69;5052281;28;20203;-84
2023/01/12 11:04:41;;;;;;;3.08;1.33;;;;;;;11.01;61.74;99886.88;5044527;28;20437;-82
2023/01/12 11:07:18;;;;;;;5.45;1.23;;;;;;;11.05;61.63;99885.78;5062543;28;20175;-83
2023/01/12 11:09:44;;;;;;;1.58;0.98;;;;;;;11.14;61.18;99876.47;5058072;28;20672;-83
2023/01/12 11:12:25;;;;;;;3.55;1.40;;;;;;;11.21;61.31;99885.69;5053484;28;20208;-83
2023/01/12 11:15:02;;;;;;;2.75;1.23;;;;;;;11.29;61.07;99886.03;5048809;28;20203;-83
2023/01/12 11:17:30;;;;;;;3.40;1.23;;;;;;;11.32;61.09;99890.28;5064609;28;20233;-83
2023/01/12 11:19:59;;;;;;;5.35;1.10;;;;;;;11.29;61.21;99881.63;5055938;28;20187;-83
2023/01/12 11:22:30;;;;;;;2.63;1.42;;;;;;;11.33;60.93;99897.22;5038588;28;20206;-83
2023/01/12 11:24:58;;;;;;;3.58;1.30;;;;;;;11.33;60.96;99881.44;5048006;28;20604;-84
2023/01/12 11:27:30;;;;;;;2.75;1.20;;;;;;;11.36;61.09;99873.34;5043886;28;20184;-84
2023/01/12 11:30:03;;;;;;;2.10;1.17;;;;;;;11.34;61.04;99873.47;5046972;28;20220;-83
2023/01/12 11:32:31;;;;;;;1.17;0.98;;;;;;;11.32;61.34;99861.34;5046242;28;20194;-84
2023/01/12 11:35:25;;;;;;;3.85;1.30;;;;;;;11.33;61.40;99852.50;5046046;28;20425;-84
2023/01/12 11:37:54;;;;;;;3.10;1.48;;;;;;;11.32;61.38;99837.69;5051912;28;20209;-83
2023/01/12 11:40:34;;;;;;;3.22;1.48;;;;;;;11.33;61.34;99834.94;5064511;28;20198;-83
2023/01/12 11:46:14;;;;;;;2.10;1.10;;;;;;;11.35;61.64;99833.06;5060504;28;20178;-83
2023/01/12 11:48:54;;;;;;;5.70;1.45;;;;;;;11.38;61.48;99843.38;5048009;28;20192;-83
2023/01/12 11:51:19;;;;;;;1.05;0.70;;;;;;;11.42;61.42;99850.16;5045175;28;20207;-83
2023/01/12 11:53:45;;;;;;;4.43;1.40;;;;;;;11.42;61.13;99852.78;5043208;28;20192;-83
2023/01/12 11:56:45;;;;;;;3.43;1.17;;;;;;;11.39;61.44;99842.44;5046131;28;20184;-83
2023/01/12 11:59:44;;;;;;;2.30;1.05;;;;;;;11.41;61.61;99847.59;5043415;28;20218;-84
2023/01/12 12:02:15;;;;;;;3.70;1.95;;;;;;;11.38;61.76;99829.38;5066653;28;20193;-83
2023/01/12 12:05:15;;;;;;;2.03;0.82;;;;;;;11.38;61.81;99832.03;5064790;28;20207;-83
2023/01/12 12:08:16;;;;;;;3.53;1.00;;;;;;;11.38;61.74;99835.50;5040998;28;20218;-83
2023/01/12 12:10:41;;;;;;;3.45;1.48;;;;;;;11.39;61.67;99839.78;5061497;28;20198;-85
2023/01/12 12:13:27;;;;;;;1.30;0.80;;;;;;;11.42;61.64;99833.50;5066627;28;20193;-83
2023/01/12 12:16:14;;;;;;;3.35;1.08;;;;;;;11.45;61.68;99828.03;5033388;28;20202;-84
2023/01/12 12:19:13;;;;;;;1.05;0.80;;;;;;;11.43;61.72;99833.41;5065599;28;20249;-83
2023/01/12 12:22:07;;;;;;;2.67;1.00;;;;;;;11.49;61.35;99814.59;5065135;28;20247;-83
2023/01/12 12:24:39;;;;;;;2.35;1.08;;;;;;;11.58;61.47;99823.69;5043176;28;20194;-83
2023/01/12 12:27:13;;;;;;;5.95;1.52;;;;;;;11.63;61.22;99816.34;5063106;28;20217;-83